Time;durP1;ratioP1;P1;durP2;ratioP2;P2;SDS_P1;SDS_P2;PMS_P1;PMS_P2;Temp;Humidity;BMP_temperature;BMP_pressure;BME280_temperature;BME280_humidity;BME280_pressure;Samples;Min_cycle;Max_cycle;Signal;HPM_P1;HPM_P2
2023/11/06 00:00:57;;;;;;;0.20;0.20;;;;;;;15.97;78.75;99728.72;4975833;28;20023;-87
2023/11/06 00:03:23;;;;;;;0.20;0.20;;;;;;;16.18;77.78;99765.09;4975463;28;20486;-87
2023/11/06 00:05:49;;;;;;;0.20;0.20;;;;;;;16.12;77.91;99743.47;4975293;28;20109;-87
2023/11/06 00:08:14;;;;;;;0.20;0.20;;;;;;;16.06;78.87;99761.97;4975303;28;20026;-87
2023/11/06 00:10:40;;;;;;;0.20;0.20;;;;;;;15.95;80.73;99768.44;4974999;28;20469;-87
2023/11/06 00:13:06;;;;;;;0.20;0.20;;;;;;;15.91;80.79;99772.47;4974936;28;20045;-87
2023/11/06 00:15:32;;;;;;;0.20;0.20;;;;;;;15.86;82.03;99770.09;4975397;28;20026;-87
2023/11/06 00:17:57;;;;;;;0.20;0.20;;;;;;;15.89;81.91;99763.66;4974864;28;20085;-87
2023/11/06 00:20:23;;;;;;;0.20;0.20;;;;;;;15.87;82.88;99768.88;4992411;28;20105;-87
2023/11/06 00:22:48;;;;;;;0.20;0.20;;;;;;;15.98;82.25;99766.84;4974780;28;20026;-87
2023/11/06 00:25:15;;;;;;;0.20;0.20;;;;;;;15.88;82.83;99731.22;4974850;28;20022;-87
2023/11/06 00:27:41;;;;;;;0.20;0.20;;;;;;;16.03;82.83;99765.56;4992594;28;20057;-87
2023/11/06 00:30:07;;;;;;;0.20;0.20;;;;;;;15.70;84.57;99726.47;4992255;28;20062;-88
2023/11/06 00:32:33;;;;;;;0.20;0.20;;;;;;;16.10;83.39;99776.78;4974915;28;20037;-87
2023/11/06 00:34:58;;;;;;;0.20;0.20;;;;;;;16.07;84.28;99764.34;4975114;28;20022;-87
2023/11/06 00:37:24;;;;;;;0.20;0.20;;;;;;;15.96;84.72;99749.59;4975172;28;20045;-87
2023/11/06 00:43:12;;;;;;;0.20;0.20;;;;;;;16.04;85.95;99762.38;4993030;28;20061;-87
2023/11/06 00:45:37;;;;;;;0.20;0.20;;;;;;;16.17;85.99;99771.13;4995156;28;20479;-85
2023/11/06 00:48:04;;;;;;;0.20;0.20;;;;;;;16.10;86.63;99786.00;4978618;28;20121;-87
2023/11/06 00:50:29;;;;;;;0.20;0.20;;;;;;;16.15;86.47;99791.19;4994294;28;20033;-87
2023/11/06 00:52:58;;;;;;;0.20;0.20;;;;;;;16.06;85.58;99776.00;4994263;28;20034;-88
2023/11/06 00:55:23;;;;;;;0.20;0.20;;;;;;;16.08;84.65;99774.38;4994454;28;20081;-87
2023/11/06 00:57:51;;;;;;;0.20;0.20;;;;;;;15.97;84.50;99773.63;4994378;28;20426;-87
2023/11/06 01:00:17;;;;;;;0.20;0.20;;;;;;;15.93;84.50;99772.88;4993782;28;20033;-87
2023/11/06 01:02:43;;;;;;;0.20;0.20;;;;;;;15.89;85.36;99761.66;4993705;28;20037;-87
2023/11/06 01:05:09;;;;;;;0.20;0.20;;;;;;;16.09;83.96;99781.59;5011869;28;20437;-87
2023/11/06 01:07:34;;;;;;;0.20;0.20;;;;;;;16.10;84.73;99805.63;4993936;28;20064;-87
2023/11/06 01:10:00;;;;;;;0.20;0.20;;;;;;;16.04;84.77;99798.88;4993746;28;20021;-87
2023/11/06 01:12:25;;;;;;;0.20;0.20;;;;;;;15.96;85.63;99780.44;4993638;28;20036;-87
2023/11/06 01:14:51;;;;;;;0.20;0.20;;;;;;;15.93;86.04;99770.06;4993645;28;20585;-87
2023/11/06 01:17:17;;;;;;;0.20;0.20;;;;;;;15.99;87.00;99774.03;4993487;28;20096;-87
2023/11/06 01:19:42;;;;;;;0.20;0.20;;;;;;;15.90;87.13;99768.06;5011143;28;20229;-87
2023/11/06 01:22:08;;;;;;;0.20;0.20;;;;;;;15.96;87.11;99786.88;4993582;28;20113;-87
2023/11/06 01:24:33;;;;;;;0.22;0.22;;;;;;;15.92;87.34;99771.25;4993716;28;20397;-87
2023/11/06 01:26:58;;;;;;;0.20;0.20;;;;;;;15.82;87.75;99760.88;4993135;28;20093;-87
2023/11/06 01:29:24;;;;;;;0.20;0.20;;;;;;;15.93;87.93;99778.47;5011118;28;20393;-87
2023/11/06 01:31:49;;;;;;;0.20;0.20;;;;;;;15.97;87.50;99787.66;4993532;28;20022;-87
2023/11/06 01:34:15;;;;;;;0.20;0.20;;;;;;;15.78;88.76;99794.56;4993301;28;20092;-87
2023/11/06 01:36:44;;;;;;;0.20;0.20;;;;;;;15.83;89.16;99807.38;4993470;28;20022;-87
2023/11/06 01:39:11;;;;;;;0.20;0.20;;;;;;;15.57;90.43;99783.41;4993393;28;20145;-87
2023/11/06 01:41:38;;;;;;;0.20;0.20;;;;;;;15.83;90.15;99829.81;4993495;28;20030;-87
2023/11/06 01:44:05;;;;;;;0.20;0.20;;;;;;;15.74;89.02;99813.41;4993009;28;20494;-87
2023/11/06 01:46:31;;;;;;;0.20;0.20;;;;;;;15.73;90.39;99811.84;5011153;28;20105;-87
2023/11/06 01:48:56;;;;;;;0.20;0.20;;;;;;;15.77;90.51;99825.84;4981638;28;20014;-87
2023/11/06 01:51:22;;;;;;;0.20;0.20;;;;;;;15.64;90.09;99812.25;5011292;28;20473;-87
2023/11/06 01:53:48;;;;;;;0.20;0.20;;;;;;;15.82;88.78;99815.00;4993232;28;20034;-87
2023/11/06 01:56:17;;;;;;;0.20;0.20;;;;;;;16.03;86.04;99822.50;5012157;28;20409;-85
2023/11/06 01:58:43;;;;;;;0.20;0.20;;;;;;;15.81;86.29;99804.16;4977725;28;20525;-87
2023/11/06 02:01:09;;;;;;;0.20;0.20;;;;;;;15.71;88.30;99815.06;4993201;28;20433;-87
2023/11/06 02:03:34;;;;;;;0.20;0.20;;;;;;;15.55;90.48;99805.44;4993250;28;20029;-87
2023/11/06 02:06:00;;;;;;;0.20;0.20;;;;;;;15.47;89.75;99799.06;4992922;28;20030;-87
2023/11/06 02:08:26;;;;;;;0.20;0.20;;;;;;;15.36;91.17;99775.88;4993066;28;20030;-87
2023/11/06 02:10:52;;;;;;;0.20;0.20;;;;;;;15.55;90.74;99819.47;4993102;28;20026;-87
2023/11/06 02:13:19;;;;;;;0.20;0.20;;;;;;;15.50;87.89;99803.88;4993037;28;20026;-87
2023/11/06 02:15:45;;;;;;;0.20;0.20;;;;;;;15.61;90.87;99832.69;4993002;28;20147;-87
2023/11/06 02:18:11;;;;;;;0.20;0.20;;;;;;;15.48;90.53;99830.72;5010803;28;20482;-87
2023/11/06 02:20:37;;;;;;;0.20;0.20;;;;;;;15.42;92.54;99841.53;4992650;28;20488;-87
2023/11/06 02:23:03;;;;;;;0.20;0.20;;;;;;;15.36;94.54;99834.75;4992953;28;20421;-87
2023/11/06 02:25:29;;;;;;;0.20;0.20;;;;;;;15.41;87.88;99825.94;4992961;28;20034;-87
2023/11/06 02:27:55;;;;;;;0.20;0.20;;;;;;;15.28;91.69;99822.72;4992587;28;20029;-87
2023/11/06 02:30:21;;;;;;;0.20;0.20;;;;;;;15.28;92.77;99833.94;4992796;28;20018;-87
2023/11/06 02:32:46;;;;;;;0.20;0.20;;;;;;;15.35;92.20;99852.78;4992967;28;20474;-87
2023/11/06 02:35:12;;;;;;;0.20;0.20;;;;;;;15.18;95.53;99832.78;4992727;28;20605;-87
2023/11/06 02:37:38;;;;;;;0.20;0.20;;;;;;;15.22;95.47;99851.56;4995103;28;20041;-87
2023/11/06 02:40:06;;;;;;;0.20;0.20;;;;;;;15.31;91.97;99849.16;4996313;28;20109;-88
2023/11/06 02:42:39;;;;;;;0.20;0.20;;;;;;;15.41;84.47;99845.53;4996938;28;20018;-84
2023/11/06 02:45:06;;;;;;;0.20;0.20;;;;;;;15.16;84.73;99840.78;4996925;28;20425;-87
2023/11/06 02:47:31;;;;;;;0.20;0.20;;;;;;;15.18;85.58;99841.19;4996350;28;20034;-87
2023/11/06 02:49:57;;;;;;;0.20;0.20;;;;;;;14.97;87.55;99830.00;4996068;28;20064;-87
2023/11/06 02:52:23;;;;;;;0.20;0.20;;;;;;;15.03;86.08;99859.22;4996279;28;20038;-87
2023/11/06 02:54:48;;;;;;;0.20;0.20;;;;;;;15.02;85.79;99871.63;4996166;28;20122;-87
2023/11/06 02:57:14;;;;;;;0.20;0.20;;;;;;;15.16;92.37;99873.59;4996068;28;20065;-87
2023/11/06 02:59:40;;;;;;;0.20;0.20;;;;;;;15.21;91.95;99873.19;4995770;28;20061;-87
2023/11/06 03:02:05;;;;;;;0.20;0.20;;;;;;;14.94;89.47;99867.22;5013538;28;20030;-87
2023/11/06 03:04:32;;;;;;;0.20;0.20;;;;;;;14.90;91.80;99860.78;4995896;28;20030;-87
2023/11/06 03:06:57;;;;;;;0.20;0.20;;;;;;;15.31;86.31;99885.59;4996519;28;20035;-87
2023/11/06 03:09:24;;;;;;;0.20;0.20;;;;;;;14.97;90.18;99871.19;4996083;28;20041;-87
2023/11/06 03:11:49;;;;;;;0.20;0.20;;;;;;;15.01;93.13;99880.41;4995844;28;20026;-87
2023/11/06 03:14:15;;;;;;;0.20;0.20;;;;;;;14.81;93.51;99874.41;4995984;28;20501;-87
2023/11/06 03:16:40;;;;;;;0.20;0.20;;;;;;;14.68;92.18;99865.59;4996001;28;20202;-88
2023/11/06 03:19:06;;;;;;;0.20;0.20;;;;;;;14.76;94.31;99886.00;4995946;28;20030;-87
2023/11/06 03:21:32;;;;;;;0.20;0.20;;;;;;;14.76;95.06;99888.81;4996123;28;20026;-87
2023/11/06 03:23:57;;;;;;;0.20;0.20;;;;;;;14.81;95.29;99894.03;4996060;28;20041;-87
2023/11/06 03:26:24;;;;;;;0.20;0.20;;;;;;;14.59;94.47;99874.38;4996288;28;20021;-87
2023/11/06 03:28:50;;;;;;;0.20;0.20;;;;;;;14.78;93.09;99897.59;4995967;28;20092;-86
2023/11/06 03:34:00;;;;;;;0.20;0.20;;;;;;;14.95;91.54;99910.81;5013911;28;20071;-86
2023/11/06 03:36:26;;;;;;;0.20;0.20;;;;;;;14.90;90.57;99897.22;4996727;28;20036;-87
2023/11/06 03:38:51;;;;;;;0.20;0.20;;;;;;;14.88;92.48;99894.03;4979751;28;20025;-87
2023/11/06 03:41:17;;;;;;;0.20;0.20;;;;;;;14.88;92.14;99905.22;4995901;28;20029;-88
2023/11/06 03:43:42;;;;;;;0.20;0.20;;;;;;;14.92;91.35;99889.22;4995452;28;20057;-87
2023/11/06 03:46:09;;;;;;;0.20;0.20;;;;;;;15.06;91.24;99905.22;4997504;28;20257;-86
2023/11/06 03:48:35;;;;;;;0.28;0.28;;;;;;;14.82;91.90;99895.63;4995050;28;20026;-87
2023/11/06 03:51:00;;;;;;;0.20;0.20;;;;;;;14.81;91.98;99894.03;4984938;28;20044;-87
2023/11/06 03:53:26;;;;;;;0.20;0.20;;;;;;;14.67;92.83;99881.59;4975673;28;20033;-87
2023/11/06 03:55:52;;;;;;;0.20;0.20;;;;;;;14.68;91.35;99874.78;4975955;28;20026;-86
2023/11/06 03:58:18;;;;;;;0.20;0.20;;;;;;;15.01;91.15;99925.22;4978370;28;20037;-87
2023/11/06 04:13:10;;;;;;;0.20;0.20;;;;;;;15.01;83.74;99923.22;5016527;28;20049;-87
2023/11/06 04:15:36;;;;;;;0.30;0.30;;;;;;;15.16;81.00;99916.44;4995755;28;20038;-85
2023/11/06 04:21:11;;;;;;;0.20;0.20;;;;;;;15.32;80.23;99915.22;5034156;28;20088;-86
2023/11/06 04:23:37;;;;;;;0.20;0.20;;;;;;;15.38;80.78;99938.84;5014941;28;20025;-87
2023/11/06 04:26:03;;;;;;;0.30;0.30;;;;;;;15.15;82.52;99922.44;4998417;28;20500;-87
2023/11/06 04:28:29;;;;;;;0.20;0.20;;;;;;;15.22;84.07;99949.66;5014377;28;20030;-87
2023/11/06 04:30:54;;;;;;;0.20;0.20;;;;;;;15.11;84.30;99939.25;5014694;28;20037;-87
2023/11/06 04:33:20;;;;;;;0.20;0.20;;;;;;;14.94;84.31;99926.03;4997960;28;20037;-86
2023/11/06 04:35:45;;;;;;;0.20;0.20;;;;;;;15.05;83.43;99954.84;5014651;28;20075;-87
2023/11/06 04:38:11;;;;;;;0.30;0.30;;;;;;;15.04;83.67;99970.06;5014586;28;20120;-87
2023/11/06 04:47:21;;;;;;;0.20;0.20;;;;;;;15.15;81.57;99965.28;5037335;28;20053;-87
2023/11/06 04:49:46;;;;;;;0.20;0.20;;;;;;;15.03;81.22;99950.88;5014032;28;20025;-87
2023/11/06 04:52:12;;;;;;;0.20;0.20;;;;;;;15.19;80.71;99968.88;5014589;28;20029;-86
2023/11/06 04:54:41;;;;;;;0.20;0.20;;;;;;;15.00;80.70;99952.44;5014271;28;20029;-88
2023/11/06 04:57:06;;;;;;;0.20;0.20;;;;;;;14.86;81.11;99947.66;5013708;28;20453;-87
2023/11/06 04:59:31;;;;;;;0.20;0.20;;;;;;;14.83;81.18;99942.81;5013609;28;20097;-87
2023/11/06 05:01:57;;;;;;;0.20;0.20;;;;;;;15.05;79.72;99968.88;5013601;28;20111;-87
2023/11/06 05:04:22;;;;;;;0.20;0.20;;;;;;;14.88;79.47;99953.63;5013255;28;20029;-86
2023/11/06 05:06:47;;;;;;;0.20;0.20;;;;;;;15.11;81.77;99991.69;5013615;28;20528;-87
2023/11/06 05:09:13;;;;;;;0.20;0.20;;;;;;;15.06;77.96;99978.88;5013342;28;20115;-88
2023/11/06 05:11:38;;;;;;;0.20;0.20;;;;;;;14.99;75.45;99956.47;5013329;28;20025;-87
2023/11/06 05:14:04;;;;;;;0.20;0.20;;;;;;;15.12;79.28;99996.09;5013534;28;20026;-87
2023/11/06 05:16:29;;;;;;;0.20;0.20;;;;;;;14.94;79.33;99970.84;5013337;28;20052;-87
2023/11/06 05:18:55;;;;;;;0.20;0.20;;;;;;;15.50;75.57;99986.13;5013090;28;20030;-85
2023/11/06 05:21:33;;;;;;;0.20;0.20;;;;;;;15.18;79.96;99984.09;5014949;28;20091;-86
2023/11/06 05:23:59;;;;;;;0.20;0.20;;;;;;;15.07;83.72;99990.88;5013942;28;20033;-87
2023/11/06 05:26:24;;;;;;;0.20;0.20;;;;;;;14.91;86.21;99980.03;5013763;28;20087;-87
2023/11/06 05:28:50;;;;;;;0.20;0.20;;;;;;;14.79;85.00;99997.22;5013177;28;20032;-88
2023/11/06 05:31:15;;;;;;;0.20;0.20;;;;;;;14.91;84.98;99996.84;5013205;28;20124;-87
2023/11/06 05:33:41;;;;;;;0.20;0.20;;;;;;;14.67;86.57;99985.19;5013016;28;20034;-88
2023/11/06 05:36:07;;;;;;;0.20;0.20;;;;;;;14.56;88.09;99981.56;5013215;28;20036;-87
2023/11/06 05:38:33;;;;;;;0.20;0.20;;;;;;;14.66;91.09;100006.00;5013101;28;20422;-87
2023/11/06 05:40:59;;;;;;;0.20;0.20;;;;;;;14.67;90.54;100004.78;5013348;28;20393;-87
2023/11/06 05:43:24;;;;;;;0.20;0.20;;;;;;;14.60;88.71;100018.78;5013553;28;20034;-87
2023/11/06 05:45:50;;;;;;;0.20;0.20;;;;;;;14.59;90.38;99985.56;4997381;28;20120;-88
2023/11/06 05:48:15;;;;;;;0.20;0.20;;;;;;;14.56;90.08;100006.75;5013747;28;20516;-87
2023/11/06 05:50:40;;;;;;;0.20;0.20;;;;;;;14.47;89.66;100008.28;5013531;28;20038;-87
2023/11/06 05:53:06;;;;;;;0.20;0.20;;;;;;;14.50;92.62;100005.53;5014215;28;20025;-88
2023/11/06 05:55:31;;;;;;;0.20;0.20;;;;;;;14.61;90.10;100014.78;5013426;28;20017;-87
2023/11/06 05:57:57;;;;;;;0.20;0.20;;;;;;;14.30;90.61;99976.22;5013113;28;20033;-87
2023/11/06 06:00:22;;;;;;;0.20;0.20;;;;;;;14.66;92.26;100006.00;5010663;28;20390;-87
2023/11/06 06:02:48;;;;;;;0.20;0.20;;;;;;;15.21;88.90;100013.31;4993204;28;20477;-87
2023/11/06 06:05:13;;;;;;;0.20;0.20;;;;;;;15.30;87.78;100021.34;4992967;28;20037;-87
2023/11/06 06:07:39;;;;;;;0.20;0.20;;;;;;;15.16;90.32;100022.91;4993455;28;20025;-86
2023/11/06 06:10:05;;;;;;;0.20;0.20;;;;;;;15.08;87.63;100018.53;4993257;28;20022;-87
2023/11/06 06:12:33;;;;;;;0.20;0.20;;;;;;;14.88;86.91;99981.66;4995230;28;20118;-87
2023/11/06 06:14:59;;;;;;;0.20;0.20;;;;;;;15.54;85.98;100042.19;4997142;28;20022;-87
2023/11/06 06:17:25;;;;;;;0.20;0.20;;;;;;;15.89;86.49;100036.59;4997207;28;20371;-87
2023/11/06 06:19:50;;;;;;;0.20;0.20;;;;;;;16.18;82.29;100009.28;5015086;28;20030;-88
2023/11/06 06:22:16;;;;;;;0.20;0.20;;;;;;;17.03;76.05;100058.72;5016675;28;20446;-88
2023/11/06 06:24:42;;;;;;;0.20;0.20;;;;;;;17.42;74.57;100040.81;5034289;28;20025;-87
2023/11/06 06:27:07;;;;;;;0.20;0.20;;;;;;;18.22;71.60;100064.28;5016294;28;20050;-87
2023/11/06 06:29:33;;;;;;;0.20;0.20;;;;;;;18.06;70.22;100036.69;5016286;28;20060;-87
2023/11/06 06:31:58;;;;;;;0.20;0.20;;;;;;;17.64;70.84;100063.97;5016085;28;20099;-87
2023/11/06 06:34:24;;;;;;;0.20;0.20;;;;;;;17.00;73.71;100030.66;5016539;28;20042;-87
2023/11/06 06:36:49;;;;;;;0.20;0.20;;;;;;;17.33;71.94;100036.88;5016004;28;20079;-88
2023/11/06 06:39:15;;;;;;;0.20;0.20;;;;;;;17.75;70.11;100036.56;5016360;28;20049;-87
2023/11/06 06:41:41;;;;;;;0.20;0.20;;;;;;;18.70;64.40;100061.34;5034040;28;20493;-87
2023/11/06 06:44:07;;;;;;;0.20;0.20;;;;;;;18.66;65.08;100054.91;5033881;28;20041;-85
2023/11/06 06:46:32;;;;;;;0.20;0.20;;;;;;;18.55;63.88;100059.88;5015818;28;20037;-87
2023/11/06 06:48:58;;;;;;;0.20;0.20;;;;;;;19.14;64.03;100073.66;5033933;28;20117;-87
2023/11/06 06:51:23;;;;;;;0.20;0.20;;;;;;;19.84;61.69;100085.13;5002609;28;20116;-85
2023/11/06 06:53:50;;;;;;;0.20;0.20;;;;;;;20.49;58.42;100076.31;4996288;28;20378;-84
2023/11/06 06:56:16;;;;;;;0.20;0.20;;;;;;;20.62;57.90;100084.97;5012599;28;20029;-84
2023/11/06 06:58:42;;;;;;;0.20;0.20;;;;;;;20.16;58.14;100097.91;4995877;28;20022;-84
2023/11/06 07:01:08;;;;;;;0.20;0.20;;;;;;;19.71;59.95;100106.72;5013431;28;20048;-84
2023/11/06 07:03:36;;;;;;;0.20;0.20;;;;;;;18.95;62.79;100079.94;4996072;28;20025;-84
2023/11/06 07:06:02;;;;;;;0.20;0.20;;;;;;;18.76;65.68;100104.75;5013285;28;20062;-84
2023/11/06 07:08:28;;;;;;;0.20;0.20;;;;;;;18.07;67.97;100074.88;5013119;28;20061;-86
2023/11/06 07:10:53;;;;;;;0.20;0.20;;;;;;;17.50;70.97;100084.53;4996006;28;20169;-87
2023/11/06 07:13:18;;;;;;;0.20;0.20;;;;;;;17.01;74.52;100085.66;4995480;28;20030;-84
2023/11/06 07:15:44;;;;;;;0.20;0.20;;;;;;;16.74;76.71;100097.41;4995666;28;20441;-86
2023/11/06 07:18:10;;;;;;;0.20;0.20;;;;;;;16.46;80.01;100091.84;4995845;28;20033;-87
2023/11/06 07:20:36;;;;;;;0.20;0.20;;;;;;;16.94;79.29;100116.59;5002441;28;20038;-87
2023/11/06 07:23:03;;;;;;;0.20;0.20;;;;;;;18.04;73.09;100101.03;5014492;28;20370;-87
2023/11/06 07:25:28;;;;;;;0.20;0.20;;;;;;;18.63;68.62;100129.00;5033244;28;20021;-86
2023/11/06 07:27:53;;;;;;;0.20;0.20;;;;;;;17.80;73.09;100134.59;5015257;28;20112;-86
2023/11/06 07:30:19;;;;;;;0.20;0.20;;;;;;;17.89;74.13;100125.69;5015006;28;20057;-86
2023/11/06 07:32:45;;;;;;;0.20;0.20;;;;;;;19.07;66.79;100130.97;5014955;28;20102;-85
2023/11/06 07:35:12;;;;;;;0.20;0.20;;;;;;;19.45;66.77;100122.41;5014972;28;20465;-86
2023/11/06 07:37:37;;;;;;;0.20;0.20;;;;;;;18.58;69.95;100146.38;5014877;28;20128;-85
2023/11/06 07:40:05;;;;;;;0.20;0.20;;;;;;;18.55;72.14;100150.06;5015305;28;20525;-86
2023/11/06 07:42:30;;;;;;;0.20;0.20;;;;;;;18.71;69.90;100141.84;5032521;28;20100;-85
2023/11/06 07:44:56;;;;;;;0.20;0.20;;;;;;;18.35;71.14;100140.59;5014838;28;20501;-86
2023/11/06 07:47:21;;;;;;;0.20;0.20;;;;;;;18.12;72.09;100158.09;5015220;28;20553;-86
2023/11/06 07:49:47;;;;;;;0.20;0.20;;;;;;;18.78;71.14;100161.50;5031641;28;20022;-85
2023/11/06 07:52:13;;;;;;;0.20;0.20;;;;;;;19.33;67.79;100160.44;5013783;28;20025;-86
2023/11/06 07:54:42;;;;;;;0.20;0.20;;;;;;;18.96;68.03;100169.78;5013144;28;20040;-86
2023/11/06 07:57:11;;;;;;;0.20;0.20;;;;;;;20.13;63.86;100169.34;4995018;28;20018;-85
2023/11/06 07:59:40;;;;;;;0.20;0.20;;;;;;;19.12;67.85;100171.97;4994629;28;20025;-85
2023/11/06 08:02:10;;;;;;;0.20;0.20;;;;;;;18.72;68.64;100182.09;5012403;28;20036;-86
2023/11/06 08:04:36;;;;;;;0.20;0.20;;;;;;;19.75;66.54;100180.03;4994719;28;20220;-86
2023/11/06 08:07:03;;;;;;;0.20;0.20;;;;;;;19.23;68.85;100163.38;5012222;28;20057;-85
2023/11/06 08:09:28;;;;;;;0.20;0.20;;;;;;;18.89;70.25;100183.13;5012487;28;20398;-87
2023/11/06 08:11:53;;;;;;;0.20;0.20;;;;;;;19.13;70.76;100195.34;5011894;28;20022;-86
2023/11/06 08:14:19;;;;;;;0.20;0.20;;;;;;;19.03;71.52;100197.88;4994569;28;20113;-85
2023/11/06 08:16:44;;;;;;;0.20;0.20;;;;;;;18.78;69.84;100174.78;5012015;28;20486;-86
2023/11/06 08:19:10;;;;;;;0.20;0.20;;;;;;;18.40;72.33;100171.13;5011818;28;20056;-86
2023/11/06 08:21:35;;;;;;;0.20;0.20;;;;;;;18.31;75.10;100199.75;5027035;28;20037;-86
2023/11/06 08:24:02;;;;;;;0.20;0.20;;;;;;;18.00;77.33;100181.88;5014193;28;20052;-87
2023/11/06 08:26:28;;;;;;;0.20;0.20;;;;;;;17.88;79.61;100190.84;5015487;28;20113;-86
2023/11/06 08:28:54;;;;;;;0.20;0.20;;;;;;;17.83;81.87;100202.53;4999322;28;20064;-87
2023/11/06 08:31:19;;;;;;;0.20;0.20;;;;;;;17.86;81.43;100199.69;4999572;28;20409;-87
2023/11/06 08:33:45;;;;;;;0.20;0.20;;;;;;;18.04;80.89;100200.38;5021318;28;20026;-87
2023/11/06 08:36:10;;;;;;;0.20;0.20;;;;;;;18.12;81.00;100189.06;5019593;28;20032;-86
2023/11/06 08:38:35;;;;;;;0.20;0.20;;;;;;;18.70;78.27;100198.66;5015422;28;20033;-86
2023/11/06 08:41:02;;;;;;;0.20;0.20;;;;;;;19.07;74.59;100195.03;5014131;28;20060;-86
2023/11/06 08:43:27;;;;;;;0.20;0.20;;;;;;;19.14;74.03;100178.00;5013925;28;20029;-87
2023/11/06 08:45:53;;;;;;;0.20;0.20;;;;;;;18.97;73.56;100187.47;5013728;28;20025;-86
2023/11/06 08:48:19;;;;;;;0.20;0.20;;;;;;;19.50;70.29;100219.88;5013708;28;20017;-86
2023/11/06 08:50:44;;;;;;;0.20;0.20;;;;;;;19.40;70.79;100192.59;5031245;28;20385;-86
2023/11/06 08:53:10;;;;;;;0.20;0.20;;;;;;;20.87;66.70;100208.88;5013486;28;20053;-85
2023/11/06 08:55:36;;;;;;;0.20;0.20;;;;;;;20.73;63.29;100203.50;5013450;28;20025;-85
2023/11/06 08:58:02;;;;;;;0.20;0.20;;;;;;;20.86;63.06;100227.88;5013295;28;20033;-86
2023/11/06 09:00:29;;;;;;;0.20;0.20;;;;;;;21.76;59.21;100214.75;5013432;28;21417;-85
2023/11/06 09:02:54;;;;;;;0.20;0.20;;;;;;;22.14;56.92;100232.91;5013737;28;20505;-85
2023/11/06 09:05:20;;;;;;;0.20;0.20;;;;;;;22.47;55.20;100221.59;5013676;28;20041;-85
2023/11/06 09:07:45;;;;;;;0.20;0.20;;;;;;;22.38;55.33;100225.06;5031229;28;20026;-85
2023/11/06 09:10:11;;;;;;;0.20;0.20;;;;;;;22.47;53.45;100228.03;5013974;28;20032;-85
2023/11/06 09:12:37;;;;;;;0.20;0.20;;;;;;;22.61;52.58;100226.09;5013509;28;20158;-85
2023/11/06 09:15:03;;;;;;;0.20;0.20;;;;;;;22.96;52.11;100224.41;5014109;28;20116;-85
2023/11/06 09:17:28;;;;;;;0.20;0.20;;;;;;;22.97;51.96;100237.34;5013846;28;20026;-86
2023/11/06 09:19:54;;;;;;;0.20;0.20;;;;;;;23.32;51.23;100238.38;5012860;28;20075;-85
2023/11/06 09:22:20;;;;;;;0.20;0.20;;;;;;;23.19;50.89;100235.50;5013435;28;20432;-85
2023/11/06 09:24:45;;;;;;;0.20;0.20;;;;;;;22.78;52.28;100233.34;5013191;28;20036;-85
2023/11/06 09:27:11;;;;;;;0.20;0.20;;;;;;;22.87;53.44;100250.53;5030553;28;20386;-84
2023/11/06 09:29:37;;;;;;;0.20;0.20;;;;;;;23.29;51.92;100241.34;5013264;28;20021;-84
2023/11/06 09:32:03;;;;;;;0.20;0.20;;;;;;;22.28;55.91;100231.78;5012873;28;20581;-85
2023/11/06 09:34:29;;;;;;;0.20;0.20;;;;;;;23.09;53.33;100233.75;5030473;28;20026;-84
2023/11/06 09:36:57;;;;;;;0.20;0.20;;;;;;;22.61;52.67;100226.09;5013330;28;20080;-85
2023/11/06 09:39:22;;;;;;;0.22;0.22;;;;;;;23.81;49.82;100243.06;5012679;28;20067;-84
2023/11/06 09:41:49;;;;;;;0.20;0.20;;;;;;;24.15;48.25;100245.25;5012923;28;20397;-84
2023/11/06 09:44:14;;;;;;;0.20;0.20;;;;;;;24.25;47.78;100238.44;5030707;28;20026;-84
2023/11/06 09:46:40;;;;;;;0.20;0.20;;;;;;;24.43;47.34;100237.88;5013832;28;20026;-84
2023/11/06 09:49:11;;;;;;;0.20;0.20;;;;;;;24.41;46.95;100226.97;5016148;28;20594;-84
2023/11/06 09:51:40;;;;;;;0.20;0.20;;;;;;;22.58;51.24;100241.16;5016960;28;20120;-85
2023/11/06 09:54:07;;;;;;;0.20;0.20;;;;;;;22.55;50.92;100237.19;5017502;28;20090;-84
2023/11/06 09:56:33;;;;;;;0.20;0.20;;;;;;;22.49;51.12;100217.06;5017344;28;20034;-85
2023/11/06 09:59:02;;;;;;;0.20;0.20;;;;;;;22.47;51.24;100232.91;5020913;28;20521;-85
2023/11/06 10:01:28;;;;;;;0.20;0.20;;;;;;;22.27;51.66;100235.88;4996860;28;20401;-85
2023/11/06 10:03:56;;;;;;;0.20;0.20;;;;;;;21.29;52.40;100220.59;4996955;28;20026;-84
2023/11/06 10:06:22;;;;;;;0.20;0.20;;;;;;;21.26;52.06;100227.13;4979825;28;20046;-84
2023/11/06 10:08:48;;;;;;;0.20;0.20;;;;;;;21.14;53.26;100222.88;4977366;28;20081;-86
2023/11/06 10:11:21;;;;;;;0.20;0.20;;;;;;;21.53;52.02;100229.84;4977345;28;20030;-84
2023/11/06 10:13:55;;;;;;;0.20;0.20;;;;;;;21.89;51.35;100227.81;4977528;28;20089;-84
2023/11/06 10:16:24;;;;;;;0.20;0.20;;;;;;;21.87;50.53;100235.94;4994954;28;20061;-84
2023/11/06 10:18:51;;;;;;;0.20;0.20;;;;;;;22.51;50.47;100224.34;4976903;28;20461;-84
2023/11/06 10:21:29;;;;;;;0.20;0.20;;;;;;;22.52;48.91;100221.06;4976787;28;20050;-84
2023/11/06 10:24:00;;;;;;;0.20;0.20;;;;;;;23.34;48.01;100241.56;4977231;28;20394;-84
2023/11/06 10:26:31;;;;;;;0.20;0.20;;;;;;;23.48;46.13;100246.81;4994409;28;20031;-84
2023/11/06 10:29:12;;;;;;;0.20;0.20;;;;;;;24.20;45.61;100251.16;4994343;28;20030;-84
2023/11/06 10:31:39;;;;;;;0.20;0.20;;;;;;;24.27;44.85;100236.72;4993266;28;20406;-85
2023/11/06 10:34:29;;;;;;;0.20;0.20;;;;;;;23.76;45.88;100241.59;4993318;28;20382;-84
2023/11/06 10:37:13;;;;;;;0.20;0.20;;;;;;;23.90;44.68;100251.72;4976865;28;20498;-84
2023/11/06 10:39:59;;;;;;;0.20;0.20;;;;;;;23.29;43.41;100242.13;4993003;28;20026;-84
2023/11/06 10:42:25;;;;;;;0.20;0.20;;;;;;;22.79;44.12;100243.44;4977415;28;20042;-84
2023/11/06 10:44:58;;;;;;;0.20;0.20;;;;;;;22.90;44.44;100254.53;4993175;28;20471;-84
2023/11/06 10:47:34;;;;;;;0.20;0.20;;;;;;;23.37;42.37;100237.03;4994446;28;20069;-84
2023/11/06 10:50:12;;;;;;;0.20;0.20;;;;;;;23.50;41.40;100227.31;4978388;28;20038;-84
2023/11/06 10:52:41;;;;;;;0.20;0.20;;;;;;;23.23;42.17;100249.59;4995931;28;20555;-84
2023/11/06 10:55:08;;;;;;;0.20;0.20;;;;;;;23.72;40.22;100226.69;5013584;28;20034;-84
2023/11/06 10:57:34;;;;;;;0.20;0.20;;;;;;;23.43;40.51;100247.38;4995690;28;20216;-84
2023/11/06 11:00:07;;;;;;;0.20;0.20;;;;;;;23.95;40.45;100254.78;4995739;28;20041;-84
2023/11/06 11:02:35;;;;;;;;;;;;;;;24.21;39.93;100260.50;5014098;28;20076;-84
2023/11/06 11:05:02;;;;;;;0.20;0.20;;;;;;;23.73;40.12;100239.66;5001902;28;19917;-85
2023/11/06 11:07:28;;;;;;;0.20;0.20;;;;;;;23.49;40.59;100207.91;5033269;28;20034;-84
2023/11/06 11:09:54;;;;;;;0.20;0.20;;;;;;;23.31;40.58;100205.56;5015415;28;20029;-84
2023/11/06 11:12:20;;;;;;;0.20;0.20;;;;;;;23.67;41.54;100233.75;5015440;28;20069;-84
2023/11/06 11:14:46;;;;;;;0.20;0.20;;;;;;;23.66;42.08;100254.06;5033210;28;20047;-84
2023/11/06 11:17:11;;;;;;;0.20;0.20;;;;;;;23.31;41.20;100233.94;5033830;28;20505;-84
2023/11/06 11:19:39;;;;;;;0.20;0.20;;;;;;;23.57;40.89;100240.50;5015972;28;20418;-85
2023/11/06 11:22:08;;;;;;;0.20;0.20;;;;;;;23.57;41.40;100245.38;5029919;28;20029;-84
2023/11/06 11:24:45;;;;;;;0.20;0.20;;;;;;;22.55;42.84;100244.91;5030966;28;20049;-84
2023/11/06 11:27:14;;;;;;;0.20;0.20;;;;;;;23.36;42.50;100238.28;5016073;28;20026;-83
2023/11/06 11:29:54;;;;;;;0.20;0.20;;;;;;;23.66;41.82;100254.06;5016136;28;20021;-84
2023/11/06 11:32:47;;;;;;;0.20;0.20;;;;;;;22.44;43.48;100250.84;5014937;28;20025;-84
2023/11/06 11:35:19;;;;;;;0.20;0.20;;;;;;;22.72;43.58;100246.47;5015319;28;20029;-85
2023/11/06 11:37:58;;;;;;;0.20;0.20;;;;;;;22.19;44.56;100243.72;5015286;28;20511;-84
2023/11/06 11:40:44;;;;;;;0.20;0.20;;;;;;;22.84;44.52;100234.41;5014948;28;20029;-84
2023/11/06 11:43:25;;;;;;;0.20;0.20;;;;;;;23.10;44.20;100235.34;4997627;28;20045;-84
2023/11/06 11:45:50;;;;;;;0.20;0.20;;;;;;;23.07;44.23;100226.94;5032746;28;20021;-84
2023/11/06 11:48:16;;;;;;;0.20;0.20;;;;;;;23.14;43.23;100212.56;5033043;28;20025;-84
2023/11/06 11:50:45;;;;;;;0.20;0.20;;;;;;;22.78;43.68;100236.19;5007262;28;20026;-84
2023/11/06 11:53:32;;;;;;;0.20;0.20;;;;;;;22.41;44.88;100235.50;5015277;28;20496;-85
2023/11/06 11:55:58;;;;;;;0.20;0.20;;;;;;;22.27;44.65;100210.34;4995129;28;20374;-85